Time;durP1;ratioP1;P1;durP2;ratioP2;P2;SDS_P1;SDS_P2;PMS_P1;PMS_P2;Temp;Humidity;BMP_temperature;BMP_pressure;BME280_temperature;BME280_humidity;BME280_pressure;Samples;Min_cycle;Max_cycle;Signal;HPM_P1;HPM_P2
2022/04/06 00:00:45;;;;;;;14.55;9.70;;;24.60;94.60;;;;;;4164115;28;20046;-71
2022/04/06 00:02:51;;;;;;;12.80;9.73;;;24.70;94.30;;;;;;4160678;28;20085;-70
2022/04/06 00:05:00;;;;;;;16.10;11.18;;;24.60;94.30;;;;;;4193126;28;20075;-71
2022/04/06 00:07:04;;;;;;;15.50;10.93;;;24.70;94.00;;;;;;4181137;28;20037;-72
2022/04/06 00:09:11;;;;;;;15.38;9.25;;;24.80;94.20;;;;;;4182394;28;20037;-72
2022/04/06 00:11:19;;;;;;;17.88;10.00;;;24.60;94.50;;;;;;4182319;28;20055;-71
2022/04/06 00:13:24;;;;;;;13.40;8.60;;;24.60;94.50;;;;;;4166518;28;20052;-72
2022/04/06 00:15:31;;;;;;;15.07;8.32;;;24.60;94.30;;;;;;4176936;28;20040;-72
2022/04/06 00:17:40;;;;;;;14.32;9.45;;;24.50;94.20;;;;;;4134084;28;20050;-70
2022/04/06 00:19:45;;;;;;;16.63;9.50;;;24.60;94.30;;;;;;4190083;28;20044;-70
2022/04/06 00:21:52;;;;;;;16.08;9.05;;;24.60;94.40;;;;;;4168419;28;20508;-71
2022/04/06 00:23:58;;;;;;;16.15;9.30;;;24.80;94.00;;;;;;4165646;28;20045;-71
2022/04/06 00:26:03;;;;;;;13.30;7.18;;;24.80;94.00;;;;;;4164990;28;20598;-72
2022/04/06 00:28:10;;;;;;;12.30;8.02;;;24.70;93.90;;;;;;4187563;28;20049;-72
2022/04/06 00:30:16;;;;;;;11.10;7.95;;;24.80;93.90;;;;;;4186053;28;20057;-71
2022/04/06 00:32:21;;;;;;;11.88;7.70;;;24.90;94.30;;;;;;4184182;28;20040;-71
2022/04/06 00:36:46;;;;;;;15.23;8.65;;;25.10;94.20;;;;;;4184066;28;20044;-72
2022/04/06 00:38:51;;;;;;;16.80;7.63;;;25.00;93.90;;;;;;4180789;28;20045;-69
2022/04/06 00:41:14;;;;;;;15.40;8.27;;;24.80;94.20;;;;;;4185982;28;20139;-70
2022/04/06 00:46:09;;;;;;;12.52;7.15;;;24.90;93.90;;;;;;4176655;28;20052;-72
2022/04/06 00:48:15;;;;;;;12.30;7.03;;;24.80;94.00;;;;;;4175387;28;20037;-74
2022/04/06 00:50:23;;;;;;;14.57;6.97;;;24.90;93.70;;;;;;4194221;28;20037;-73
2022/04/06 00:52:30;;;;;;;12.98;6.85;;;25.00;93.60;;;;;;4165772;28;20088;-72
2022/04/06 00:54:34;;;;;;;17.27;12.95;;;25.10;93.40;;;;;;4193613;28;20053;-72
2022/04/06 00:56:42;;;;;;;18.30;12.50;;;25.30;93.30;;;;;;4168525;28;20088;-73
2022/04/06 00:58:49;;;;;;;15.00;9.68;;;25.40;93.10;;;;;;4178644;28;20049;-74
2022/04/06 01:00:54;;;;;;;11.95;8.60;;;25.50;93.00;;;;;;4179795;28;20077;-71
2022/04/06 01:03:01;;;;;;;14.00;8.02;;;25.60;92.80;;;;;;4164739;28;20530;-72
2022/04/06 01:05:08;;;;;;;15.07;7.70;;;25.80;92.70;;;;;;4180842;28;20041;-73
2022/04/06 01:07:13;;;;;;;19.17;7.05;;;25.90;92.70;;;;;;4179948;28;20496;-70
2022/04/06 01:09:19;;;;;;;16.10;6.90;;;25.90;92.60;;;;;;4163367;28;20087;-70
2022/04/06 01:11:26;;;;;;;11.77;6.72;;;26.00;92.40;;;;;;4180249;28;20144;-70
2022/04/06 01:13:30;;;;;;;10.50;6.57;;;26.10;92.10;;;;;;4162928;28;20045;-71
2022/04/06 01:15:35;;;;;;;13.27;6.25;;;26.10;92.10;;;;;;4150919;28;20049;-70
2022/04/06 01:17:39;;;;;;;14.70;6.43;;;26.20;92.00;;;;;;4179392;28;20819;-71
2022/04/06 01:19:47;;;;;;;11.60;6.43;;;26.20;91.80;;;;;;4183355;28;20126;-70
2022/04/06 01:21:53;;;;;;;9.57;6.05;;;26.20;91.70;;;;;;4170180;28;20502;-70
2022/04/06 01:23:58;;;;;;;9.80;6.68;;;26.10;91.30;;;;;;4156135;28;20065;-70
2022/04/06 01:26:04;;;;;;;7.55;5.80;;;26.10;91.10;;;;;;4170999;28;20057;-70
2022/04/06 01:28:09;;;;;;;9.95;5.82;;;26.10;91.70;;;;;;4126575;28;20042;-70
2022/04/06 01:30:15;;;;;;;7.53;5.40;;;26.20;91.40;;;;;;4142630;28;20058;-70
2022/04/06 01:32:27;;;;;;;11.07;6.32;;;26.20;91.10;;;;;;4156981;28;20164;-70
2022/04/06 01:34:33;;;;;;;13.07;6.68;;;26.30;91.30;;;;;;4142325;28;20049;-70
2022/04/06 01:36:38;;;;;;;10.93;6.00;;;26.30;91.20;;;;;;4174343;28;20052;-70
2022/04/06 01:38:43;;;;;;;9.48;5.97;;;26.30;90.80;;;;;;4158480;28;20045;-70
2022/04/06 01:40:47;;;;;;;10.05;6.10;;;26.30;90.90;;;;;;4173098;28;20040;-71
2022/04/06 01:42:55;;;;;;;11.27;6.10;;;26.40;90.90;;;;;;4174565;28;20056;-70
2022/04/06 01:45:00;;;;;;;9.27;5.43;;;26.40;90.90;;;;;;4188946;28;20094;-70
2022/04/06 01:47:07;;;;;;;8.27;5.68;;;26.50;90.90;;;;;;4123260;28;20050;-70
2022/04/06 01:53:50;;;;;;;9.65;5.60;;;26.50;90.70;;;;;;4173282;28;20056;-70
2022/04/06 01:55:58;;;;;;;10.07;5.57;;;26.40;90.90;;;;;;4172909;28;20045;-70
2022/04/06 01:58:03;;;;;;;9.90;5.70;;;26.40;90.90;;;;;;4157420;28;20052;-70
2022/04/06 02:00:12;;;;;;;9.63;6.00;;;26.40;90.90;;;;;;4157022;28;20056;-70
2022/04/06 02:02:18;;;;;;;11.70;6.07;;;26.40;90.60;;;;;;4157205;28;20100;-70
2022/04/06 02:04:23;;;;;;;10.30;5.65;;;26.50;90.70;;;;;;4154083;28;20037;-70
2022/04/06 02:06:29;;;;;;;11.52;5.63;;;26.60;90.70;;;;;;4171544;28;20045;-70
2022/04/06 02:08:36;;;;;;;9.75;5.95;;;26.70;90.70;;;;;;4158342;28;20661;-70
2022/04/06 02:10:41;;;;;;;10.68;5.38;;;26.80;90.40;;;;;;4174409;28;20053;-69
2022/04/06 02:12:49;;;;;;;10.77;5.93;;;26.70;90.40;;;;;;4139474;28;20046;-70
2022/04/06 02:14:56;;;;;;;24.52;11.73;;;26.80;90.50;;;;;;4139430;28;20734;-70
2022/04/06 02:17:03;;;;;;;18.02;8.52;;;26.80;90.40;;;;;;4138512;28;20054;-71
2022/04/06 02:19:11;;;;;;;13.05;6.88;;;26.80;90.30;;;;;;4140892;28;20081;-70
2022/04/06 02:21:20;;;;;;;9.60;6.07;;;26.90;90.30;;;;;;4142915;28;20788;-70
2022/04/06 02:23:25;;;;;;;15.90;7.15;;;26.90;90.20;;;;;;4173919;28;20049;-70
2022/04/06 02:25:32;;;;;;;10.52;6.60;;;27.00;90.30;;;;;;4140295;28;20045;-70
2022/04/06 02:27:50;;;;;;;11.13;6.13;;;26.80;90.10;;;;;;4169380;28;20128;-70
2022/04/06 02:29:55;;;;;;;14.15;6.10;;;27.00;90.10;;;;;;4173305;28;20574;-70
2022/04/06 02:32:02;;;;;;;10.73;6.82;;;27.10;90.20;;;;;;4145344;28;20061;-71
2022/04/06 02:34:09;;;;;;;17.40;8.13;;;27.20;90.10;;;;;;4153715;28;20045;-71
2022/04/06 02:36:13;;;;;;;16.15;9.07;;;27.20;90.10;;;;;;4173854;28;20079;-70
2022/04/06 02:38:20;;;;;;;11.68;7.22;;;27.20;90.00;;;;;;4155516;28;20956;-70
2022/04/06 02:40:27;;;;;;;10.38;6.97;;;27.10;88.70;;;;;;4173455;28;20526;-71
2022/04/06 02:42:32;;;;;;;13.63;7.38;;;27.10;90.00;;;;;;4125699;28;20050;-69
2022/04/06 02:44:39;;;;;;;10.27;6.93;;;27.00;90.20;;;;;;4140978;28;20034;-70
2022/04/06 02:46:46;;;;;;;11.50;6.82;;;26.90;90.00;;;;;;4171590;28;20558;-70
2022/04/06 02:48:50;;;;;;;11.20;6.57;;;26.90;90.20;;;;;;4140759;28;20057;-71
2022/04/06 02:50:56;;;;;;;11.02;6.07;;;27.10;90.00;;;;;;4174407;28;20056;-70
2022/04/06 02:53:03;;;;;;;10.13;5.82;;;27.30;90.00;;;;;;4156470;28;20052;-69
2022/04/06 02:55:12;;;;;;;11.93;5.78;;;27.40;90.00;;;;;;4155388;28;20599;-70
2022/04/06 02:57:19;;;;;;;12.82;7.15;;;27.50;89.30;;;;;;4173854;28;20107;-69
2022/04/06 02:59:26;;;;;;;15.60;7.95;;;27.50;89.20;;;;;;4124247;28;20075;-70
2022/04/06 03:01:31;;;;;;;10.90;7.18;;;27.60;90.00;;;;;;4172399;28;20693;-69
2022/04/06 03:03:38;;;;;;;11.40;6.95;;;27.60;88.80;;;;;;4170272;28;20060;-70
2022/04/06 03:05:45;;;;;;;13.85;8.15;;;27.70;88.50;;;;;;4169045;28;20049;-70
2022/04/06 03:07:49;;;;;;;15.60;9.18;;;27.80;89.60;;;;;;4138178;28;20046;-70
2022/04/06 03:09:55;;;;;;;12.60;7.75;;;27.80;88.10;;;;;;4175498;28;20037;-70
2022/04/06 03:12:03;;;;;;;12.57;7.18;;;27.70;88.60;;;;;;4173282;28;20132;-70
2022/04/06 03:14:09;;;;;;;10.68;6.60;;;27.80;88.00;;;;;;4170982;28;20123;-70
2022/04/06 03:16:16;;;;;;;9.32;5.72;;;27.70;88.80;;;;;;4155436;28;20073;-69
2022/04/06 03:18:25;;;;;;;9.90;5.65;;;27.70;88.50;;;;;;4192118;28;20521;-69
2022/04/06 03:20:30;;;;;;;13.30;6.40;;;27.80;88.70;;;;;;4157258;28;20037;-70
2022/04/06 03:22:39;;;;;;;9.68;5.85;;;27.90;88.30;;;;;;4158184;28;20046;-70
2022/04/06 03:24:47;;;;;;;9.65;5.75;;;27.80;87.70;;;;;;4158710;28;20221;-70
2022/04/06 03:26:51;;;;;;;8.65;5.10;;;27.90;87.50;;;;;;4158329;28;20370;-69
2022/04/06 03:28:58;;;;;;;8.05;4.95;;;27.90;87.60;;;;;;4175518;28;20043;-71
2022/04/06 03:31:03;;;;;;;8.63;5.22;;;27.80;87.80;;;;;;4188236;28;20044;-68
2022/04/06 03:33:09;;;;;;;8.93;5.13;;;28.00;87.50;;;;;;4155112;28;20049;-68
2022/04/06 03:35:13;;;;;;;9.30;5.03;;;27.90;86.90;;;;;;4170566;28;20107;-71
2022/04/06 03:37:18;;;;;;;12.13;4.97;;;28.00;87.10;;;;;;4175058;28;20179;-70
2022/04/06 03:39:23;;;;;;;8.48;5.53;;;28.00;87.10;;;;;;4155218;28;20065;-70
2022/04/06 03:41:27;;;;;;;10.30;5.55;;;28.00;87.40;;;;;;4174061;28;20047;-70
2022/04/06 03:43:33;;;;;;;7.28;4.45;;;28.20;87.20;;;;;;4157115;28;20055;-70
2022/04/06 03:45:38;;;;;;;6.82;4.65;;;28.40;87.00;;;;;;4175207;28;20045;-70
2022/04/06 03:47:45;;;;;;;7.60;4.80;;;28.50;86.80;;;;;;4175440;28;20095;-69
2022/04/06 03:49:53;;;;;;;9.60;5.13;;;28.60;86.50;;;;;;4175042;28;20041;-69
2022/04/06 03:51:57;;;;;;;7.57;5.03;;;28.70;86.40;;;;;;4174348;28;20033;-69
2022/04/06 03:54:01;;;;;;;7.35;4.97;;;28.60;85.10;;;;;;4174631;28;20412;-69
2022/04/06 03:56:06;;;;;;;9.52;4.93;;;28.50;86.80;;;;;;4174568;28;20474;-69
2022/04/06 03:58:10;;;;;;;7.60;4.97;;;28.50;86.30;;;;;;4156112;28;20132;-68
2022/04/06 04:00:17;;;;;;;8.75;4.75;;;28.60;86.50;;;;;;4157200;28;20109;-71
2022/04/06 04:02:24;;;;;;;9.45;4.97;;;28.50;86.80;;;;;;4157335;28;20458;-70
2022/04/06 04:04:28;;;;;;;6.18;4.28;;;28.60;86.10;;;;;;4172269;28;20048;-70
2022/04/06 04:06:33;;;;;;;6.07;3.90;;;28.60;86.50;;;;;;4156084;28;20054;-69
2022/04/06 04:08:40;;;;;;;9.30;4.70;;;28.60;86.00;;;;;;4175044;28;20033;-72
2022/04/06 04:10:44;;;;;;;9.25;5.18;;;28.40;86.90;;;;;;4174493;28;20046;-69
2022/04/06 04:12:49;;;;;;;9.30;3.97;;;28.50;85.70;;;;;;4153345;28;20045;-69
2022/04/06 04:14:56;;;;;;;7.60;4.07;;;28.60;86.00;;;;;;4172700;28;20572;-69
2022/04/06 04:17:01;;;;;;;8.52;4.43;;;28.70;85.50;;;;;;4172644;28;20064;-69
2022/04/06 04:19:08;;;;;;;5.88;3.92;;;28.60;84.30;;;;;;4174009;28;20049;-69
2022/04/06 04:23:31;;;;;;;6.38;4.38;;;28.60;85.70;;;;;;4173570;28;20045;-69
2022/04/06 04:25:36;;;;;;;8.93;4.47;;;28.80;85.10;;;;;;4171528;28;20060;-69
2022/04/06 04:27:43;;;;;;;7.60;4.57;;;29.00;86.40;;;;;;4174141;28;20045;-69
2022/04/06 04:29:48;;;;;;;7.10;4.35;;;29.00;85.50;;;;;;4173471;28;20128;-69
2022/04/06 04:31:55;;;;;;;6.82;3.92;;;28.90;85.80;;;;;;4171534;28;20045;-69
2022/04/06 04:34:01;;;;;;;6.43;4.22;;;29.00;86.00;;;;;;4139696;28;20097;-69
2022/04/06 04:36:06;;;;;;;6.63;4.30;;;29.10;85.70;;;;;;4156191;28;20527;-69
2022/04/06 04:38:11;;;;;;;7.22;4.10;;;29.10;86.10;;;;;;4172992;28;20048;-69
2022/04/06 04:40:19;;;;;;;8.75;4.20;;;29.10;84.90;;;;;;4154974;28;20503;-69
2022/04/06 04:42:24;;;;;;;8.20;4.60;;;28.90;84.70;;;;;;4156536;28;20045;-69
2022/04/06 04:44:30;;;;;;;6.60;4.30;;;28.80;86.50;;;;;;4173040;28;20049;-70
2022/04/06 04:46:36;;;;;;;6.45;4.00;;;28.90;85.30;;;;;;4155882;28;20037;-69
2022/04/06 04:48:41;;;;;;;6.45;4.60;;;29.00;86.20;;;;;;4172493;28;20049;-69
2022/04/06 04:50:48;;;;;;;7.07;4.35;;;28.90;86.10;;;;;;4174180;28;20155;-70
2022/04/06 04:52:55;;;;;;;7.18;4.78;;;29.00;86.60;;;;;;4156960;28;20049;-70
2022/04/06 04:55:00;;;;;;;6.95;4.03;;;29.20;86.80;;;;;;4174537;28;20102;-70
2022/04/06 04:57:06;;;;;;;6.18;4.30;;;29.10;86.20;;;;;;4174246;28;20072;-70
2022/04/06 04:59:13;;;;;;;5.15;4.35;;;29.20;86.70;;;;;;4174518;28;20613;-70
2022/04/06 05:01:18;;;;;;;7.63;4.38;;;29.20;85.80;;;;;;4157257;28;20071;-69
2022/04/06 05:03:24;;;;;;;8.27;4.47;;;29.20;85.80;;;;;;4173980;28;20163;-70
2022/04/06 05:05:29;;;;;;;6.60;4.05;;;29.10;85.00;;;;;;4156471;28;20065;-70
2022/04/06 05:07:37;;;;;;;6.25;4.13;;;29.30;85.80;;;;;;4174165;28;20069;-70
2022/04/06 05:09:44;;;;;;;6.57;4.35;;;29.40;86.20;;;;;;4173108;28;20139;-70
2022/04/06 05:11:50;;;;;;;7.55;4.60;;;29.50;84.60;;;;;;4166346;28;20060;-68
2022/04/06 05:13:55;;;;;;;7.07;4.13;;;29.70;85.60;;;;;;4173541;28;20107;-69
2022/04/06 05:16:01;;;;;;;6.28;4.28;;;29.60;85.10;;;;;;4174092;28;20064;-69
2022/04/06 05:18:09;;;;;;;7.00;4.00;;;29.70;84.80;;;;;;4157018;28;20061;-70
2022/04/06 05:20:14;;;;;;;7.60;3.83;;;29.80;84.20;;;;;;4156440;28;20149;-70
2022/04/06 05:22:21;;;;;;;5.43;3.95;;;29.70;83.80;;;;;;4173811;28;20076;-69
2022/04/06 05:24:30;;;;;;;6.00;4.03;;;29.60;84.50;;;;;;4156460;28;20055;-69
2022/04/06 05:26:35;;;;;;;4.90;3.50;;;29.50;83.30;;;;;;4155828;28;20160;-70
2022/04/06 05:28:41;;;;;;;6.18;3.72;;;29.70;84.30;;;;;;4174011;28;20091;-70
2022/04/06 05:30:47;;;;;;;8.10;4.53;;;29.70;83.90;;;;;;4173502;28;20051;-69
2022/04/06 05:32:55;;;;;;;6.10;3.53;;;29.70;83.80;;;;;;4173328;28;20583;-70
2022/04/06 05:35:02;;;;;;;5.47;3.58;;;29.90;83.80;;;;;;4173913;28;20060;-69
2022/04/06 05:37:09;;;;;;;5.72;3.33;;;29.60;82.20;;;;;;4173864;28;20509;-72
2022/04/06 05:39:13;;;;;;;6.00;3.58;;;29.60;83.20;;;;;;4173952;28;20077;-69
2022/04/06 05:41:20;;;;;;;5.10;3.50;;;29.80;83.70;;;;;;4173677;28;20514;-69
2022/04/06 05:43:26;;;;;;;5.30;3.50;;;29.90;83.60;;;;;;4173147;28;20052;-69
2022/04/06 05:45:30;;;;;;;5.90;3.42;;;29.80;82.90;;;;;;4173267;28;20638;-69
2022/04/06 05:47:41;;;;;;;5.00;3.45;;;29.90;82.90;;;;;;4173289;28;20040;-67
2022/04/06 05:49:47;;;;;;;7.00;3.50;;;29.90;82.10;;;;;;4173964;28;20048;-68
2022/04/06 05:51:52;;;;;;;7.47;3.67;;;29.80;82.00;;;;;;4139792;28;20133;-69
2022/04/06 05:54:00;;;;;;;4.35;3.40;;;30.00;82.20;;;;;;4173710;28;20036;-68
2022/04/06 05:56:12;;;;;;;7.53;3.22;;;30.10;81.20;;;;;;4156657;28;20057;-69
2022/04/06 05:58:17;;;;;;;4.78;3.20;;;30.20;81.60;;;;;;4172357;28;20076;-68
2022/04/06 06:00:21;;;;;;;8.70;4.28;;;30.40;81.60;;;;;;4173107;28;20670;-69
2022/04/06 06:02:29;;;;;;;5.07;3.30;;;30.40;81.70;;;;;;4173373;28;20063;-70
2022/04/06 06:04:33;;;;;;;6.15;3.42;;;30.50;81.50;;;;;;4172960;28;20195;-70
2022/04/06 06:06:39;;;;;;;7.18;3.72;;;30.20;80.70;;;;;;4137537;28;20050;-69
2022/04/06 06:08:47;;;;;;;5.53;3.17;;;30.20;80.60;;;;;;4173401;28;20420;-68
2022/04/06 06:10:51;;;;;;;5.35;3.05;;;30.30;81.70;;;;;;4173478;28;20036;-69
2022/04/06 06:12:58;;;;;;;6.30;3.85;;;30.20;81.50;;;;;;4172658;28;20068;-69
2022/04/06 06:15:07;;;;;;;5.93;3.00;;;30.10;81.20;;;;;;4172959;28;20080;-69
2022/04/06 06:17:11;;;;;;;6.53;3.35;;;30.20;81.00;;;;;;4173015;28;20479;-69
2022/04/06 06:19:17;;;;;;;7.65;3.50;;;30.40;80.70;;;;;;4172837;28;20440;-69
2022/04/06 06:21:31;;;;;;;10.95;4.00;;;30.40;79.50;;;;;;4172304;28;20076;-70
2022/04/06 06:23:36;;;;;;;7.30;3.78;;;30.30;80.90;;;;;;4165017;28;20107;-69
2022/04/06 06:25:45;;;;;;;9.02;4.03;;;30.40;80.90;;;;;;4173227;28;20084;-68
2022/04/06 06:27:52;;;;;;;10.63;4.13;;;30.40;80.40;;;;;;4155600;28;20054;-69
2022/04/06 06:29:57;;;;;;;8.05;4.20;;;30.40;80.70;;;;;;4171853;28;20052;-69
2022/04/06 06:32:04;;;;;;;6.18;4.13;;;30.50;80.50;;;;;;4173358;28;21902;-69
2022/04/06 06:34:10;;;;;;;5.88;3.45;;;30.60;79.90;;;;;;4173434;28;20049;-70
2022/04/06 06:36:15;;;;;;;5.38;3.45;;;30.50;79.90;;;;;;4155951;28;20044;-69
2022/04/06 06:38:22;;;;;;;6.85;3.92;;;30.60;81.40;;;;;;4122131;28;20053;-70
2022/04/06 06:40:28;;;;;;;6.38;3.50;;;30.40;80.40;;;;;;4172981;28;20037;-69
2022/04/06 06:42:33;;;;;;;8.85;3.70;;;30.60;80.30;;;;;;4173673;28;20045;-69
2022/04/06 06:44:38;;;;;;;5.13;3.63;;;30.70;80.70;;;;;;4173476;28;20053;-70
2022/04/06 06:46:44;;;;;;;6.95;3.70;;;30.70;80.20;;;;;;4173469;28;20044;-69
2022/04/06 06:48:49;;;;;;;6.57;4.00;;;30.60;79.10;;;;;;4178794;28;20071;-68
2022/04/06 06:50:56;;;;;;;7.07;4.45;;;30.70;78.70;;;;;;4187707;28;20067;-69
2022/04/06 06:53:02;;;;;;;5.50;3.80;;;30.80;79.80;;;;;;4173325;28;20041;-69
2022/04/06 06:55:08;;;;;;;6.45;3.60;;;30.90;80.10;;;;;;4172834;28;20047;-69
2022/04/06 06:57:16;;;;;;;5.70;3.80;;;31.00;80.00;;;;;;4173474;28;20037;-68
2022/04/06 06:59:22;;;;;;;7.80;3.80;;;31.10;80.20;;;;;;4172843;28;20107;-69
2022/04/06 07:01:27;;;;;;;4.47;3.63;;;31.20;79.70;;;;;;4173300;28;20051;-69
2022/04/06 07:03:33;;;;;;;6.25;3.95;;;31.10;78.80;;;;;;4173167;28;20053;-69
2022/04/06 07:05:40;;;;;;;8.88;4.40;;;31.20;78.00;;;;;;4173125;28;20478;-69
2022/04/06 07:07:54;;;;;;;7.07;4.43;;;31.20;78.20;;;;;;4171883;28;20080;-70
2022/04/06 07:10:02;;;;;;;7.70;5.00;;;31.30;77.40;;;;;;4169939;28;20049;-69
2022/04/06 07:12:08;;;;;;;7.60;4.53;;;31.20;78.20;;;;;;4175312;28;20045;-69
2022/04/06 07:14:13;;;;;;;6.57;4.35;;;31.20;77.80;;;;;;4175080;28;20047;-69
2022/04/06 07:16:19;;;;;;;8.20;4.90;;;31.20;78.10;;;;;;4157789;28;20523;-69
2022/04/06 07:18:26;;;;;;;7.00;4.43;;;31.30;77.10;;;;;;4174281;28;20542;-69
2022/04/06 07:20:37;;;;;;;8.63;4.30;;;31.20;77.80;;;;;;4172990;28;20558;-69
2022/04/06 07:22:42;;;;;;;7.40;4.10;;;31.20;77.40;;;;;;4172614;28;20072;-69
2022/04/06 07:24:49;;;;;;;6.63;4.20;;;31.30;77.60;;;;;;4174772;28;20487;-69
2022/04/06 07:26:56;;;;;;;7.90;4.68;;;31.30;77.20;;;;;;4175120;28;20482;-69
2022/04/06 07:29:02;;;;;;;8.90;4.70;;;31.40;76.30;;;;;;4176077;28;20075;-69
2022/04/06 07:31:08;;;;;;;7.25;5.00;;;31.40;77.60;;;;;;4189314;28;20554;-69
2022/04/06 07:33:14;;;;;;;6.90;4.97;;;31.40;77.00;;;;;;4175978;28;20530;-69
2022/04/06 07:35:21;;;;;;;6.35;4.97;;;31.50;77.50;;;;;;4175704;28;20103;-69
2022/04/06 07:37:34;;;;;;;7.63;4.50;;;31.50;76.70;;;;;;4176063;28;20044;-69
2022/04/06 07:39:39;;;;;;;7.22;4.50;;;31.50;76.50;;;;;;4174867;28;20442;-69
2022/04/06 07:41:45;;;;;;;5.35;4.05;;;31.50;76.20;;;;;;4175594;28;20073;-70
2022/04/06 07:43:51;;;;;;;6.05;4.47;;;31.30;75.40;;;;;;4175896;28;20045;-71
2022/04/06 07:45:56;;;;;;;8.27;4.10;;;31.30;75.80;;;;;;4175323;28;20068;-69
2022/04/06 07:48:02;;;;;;;6.90;4.47;;;31.20;76.30;;;;;;4179591;28;20053;-69
2022/04/06 07:50:09;;;;;;;7.70;4.47;;;31.20;77.70;;;;;;4174639;28;20084;-69
2022/04/06 07:52:14;;;;;;;6.55;4.20;;;31.30;75.70;;;;;;4190387;28;20135;-70
2022/04/06 07:54:20;;;;;;;7.68;4.75;;;31.30;75.60;;;;;;4175810;28;20650;-71
2022/04/06 07:56:27;;;;;;;6.13;4.38;;;31.30;75.80;;;;;;4175420;28;20057;-70
2022/04/06 07:58:32;;;;;;;7.70;4.53;;;31.40;76.30;;;;;;4175680;28;20053;-70
2022/04/06 08:00:38;;;;;;;7.57;4.47;;;31.50;75.30;;;;;;4175233;28;20106;-69
2022/04/06 08:02:45;;;;;;;6.07;4.40;;;31.60;76.20;;;;;;4174316;28;20055;-69
2022/04/06 08:04:50;;;;;;;10.80;4.78;;;31.60;75.60;;;;;;4174497;28;20837;-70
2022/04/06 08:06:56;;;;;;;7.72;4.93;;;31.60;75.00;;;;;;4173579;28;20171;-70
2022/04/06 08:09:02;;;;;;;8.18;4.63;;;31.50;74.80;;;;;;4174544;28;20510;-68
2022/04/06 08:11:08;;;;;;;8.20;4.80;;;31.50;75.00;;;;;;4174369;28;20040;-69
2022/04/06 08:13:12;;;;;;;8.75;4.93;;;31.40;75.60;;;;;;4174726;28;20108;-69
2022/04/06 08:15:20;;;;;;;5.75;4.38;;;31.50;75.70;;;;;;4173607;28;20045;-68
2022/04/06 08:17:25;;;;;;;6.80;4.60;;;31.60;75.60;;;;;;4174367;28;20051;-68
2022/04/06 08:19:31;;;;;;;8.05;5.07;;;31.60;75.40;;;;;;4173556;28;20076;-68
2022/04/06 08:21:36;;;;;;;6.57;4.70;;;31.50;75.00;;;;;;4171487;28;20492;-68
2022/04/06 08:23:41;;;;;;;7.93;5.30;;;31.50;75.20;;;;;;4174371;28;20071;-68
2022/04/06 08:25:49;;;;;;;9.55;5.78;;;31.40;75.20;;;;;;4174103;28;20056;-67
2022/04/06 08:27:56;;;;;;;12.63;5.43;;;31.50;76.00;;;;;;4171821;28;20152;-69
2022/04/06 08:30:00;;;;;;;9.38;5.80;;;31.50;75.90;;;;;;4156954;28;20041;-69
2022/04/06 08:32:07;;;;;;;8.77;5.10;;;31.50;76.50;;;;;;4171967;28;20716;-69
2022/04/06 08:34:15;;;;;;;8.38;5.35;;;31.50;75.90;;;;;;4174539;28;20060;-69
2022/04/06 08:36:20;;;;;;;8.68;5.72;;;31.50;75.70;;;;;;4174490;28;20051;-69
2022/04/06 08:38:24;;;;;;;8.27;5.30;;;31.40;74.90;;;;;;4173981;28;20076;-70
2022/04/06 08:40:30;;;;;;;7.63;5.32;;;31.30;75.00;;;;;;4174518;28;20076;-70
2022/04/06 08:42:35;;;;;;;9.60;5.72;;;31.30;74.60;;;;;;4174648;28;20172;-69
2022/04/06 08:44:42;;;;;;;7.95;5.32;;;31.40;74.80;;;;;;4175152;28;20084;-70
2022/04/06 08:46:48;;;;;;;7.38;4.97;;;31.30;74.90;;;;;;4175120;28;20419;-70
2022/04/06 08:48:52;;;;;;;7.32;5.10;;;31.30;74.70;;;;;;4168156;28;20736;-70
2022/04/06 08:51:00;;;;;;;10.07;5.80;;;31.30;75.00;;;;;;4122991;28;20053;-70
2022/04/06 08:53:07;;;;;;;8.27;5.53;;;31.30;76.30;;;;;;4174701;28;20079;-70
2022/04/06 08:55:13;;;;;;;5.55;4.97;;;31.30;75.60;;;;;;4177063;28;20668;-69
2022/04/06 08:57:20;;;;;;;8.73;5.38;;;31.20;75.10;;;;;;4179512;28;20041;-70
2022/04/06 08:59:24;;;;;;;7.35;5.35;;;31.10;75.70;;;;;;4179478;28;20045;-70
2022/04/06 09:01:33;;;;;;;8.27;5.18;;;31.20;76.20;;;;;;4179343;28;20083;-70
2022/04/06 09:03:38;;;;;;;6.47;5.07;;;31.20;75.20;;;;;;4178488;28;20095;-69
2022/04/06 09:05:45;;;;;;;9.15;5.30;;;31.30;75.60;;;;;;4161534;28;20095;-69
2022/04/06 09:07:54;;;;;;;9.90;5.40;;;31.20;76.00;;;;;;4179253;28;20143;-71
2022/04/06 09:10:00;;;;;;;9.68;5.70;;;31.20;75.20;;;;;;4178365;28;20045;-69
2022/04/06 09:12:15;;;;;;;8.80;5.45;;;31.20;75.30;;;;;;4187999;28;20051;-69
2022/04/06 09:14:35;;;;;;;10.65;5.50;;;31.20;75.60;;;;;;4176783;28;20037;-69
2022/04/06 09:16:42;;;;;;;11.60;5.97;;;31.10;75.90;;;;;;4143978;28;20070;-69
2022/04/06 09:18:50;;;;;;;8.60;5.57;;;31.10;75.10;;;;;;4179732;28;20049;-68
2022/04/06 09:21:02;;;;;;;10.88;6.53;;;31.10;76.40;;;;;;4159131;28;20091;-70
2022/04/06 09:23:09;;;;;;;10.38;5.88;;;31.00;76.20;;;;;;4175222;28;20147;-68
2022/04/06 09:25:16;;;;;;;6.20;5.53;;;31.00;76.20;;;;;;4176683;28;20056;-69
2022/04/06 09:27:21;;;;;;;11.35;5.47;;;31.00;76.40;;;;;;4184168;28;20372;-69
2022/04/06 09:29:29;;;;;;;10.35;5.50;;;31.10;77.50;;;;;;4176485;28;20037;-69
2022/04/06 09:31:40;;;;;;;12.43;5.78;;;31.00;77.50;;;;;;4176238;28;20123;-70
2022/04/06 09:33:58;;;;;;;9.38;6.13;;;31.00;77.30;;;;;;4176190;28;20124;-70
2022/04/06 09:36:21;;;;;;;12.02;6.13;;;31.00;77.00;;;;;;4188284;28;20604;-70
2022/04/06 09:38:31;;;;;;;24.27;11.05;;;31.00;77.00;;;;;;4145354;28;20046;-69
2022/04/06 09:40:43;;;;;;;11.18;6.30;;;31.00;78.20;;;;;;4176410;28;20029;-69
2022/04/06 09:42:52;;;;;;;14.85;6.10;;;30.90;77.30;;;;;;4176745;28;20037;-70
2022/04/06 09:49:36;;;;;;;9.38;6.75;;;30.90;77.40;;;;;;4154561;28;20120;-68
2022/04/06 09:51:43;;;;;;;11.57;7.75;;;30.90;78.40;;;;;;4178206;28;20041;-70
2022/04/06 09:53:50;;;;;;;8.35;6.30;;;30.90;78.60;;;;;;4161508;28;20496;-70
2022/04/06 09:55:57;;;;;;;10.07;6.90;;;30.90;78.60;;;;;;4178740;28;20763;-69
2022/04/06 09:58:05;;;;;;;16.58;7.72;;;30.80;79.60;;;;;;4178606;28;20041;-69
2022/04/06 10:00:16;;;;;;;13.23;6.53;;;30.80;79.40;;;;;;4177566;28;20053;-70
2022/04/06 10:02:22;;;;;;;10.77;7.00;;;30.80;79.50;;;;;;4186373;28;20041;-69
2022/04/06 10:04:29;;;;;;;11.52;8.02;;;30.80;79.70;;;;;;4178180;28;20106;-70
2022/04/06 10:06:41;;;;;;;16.98;10.07;;;30.80;79.60;;;;;;4178021;28;20052;-70
2022/04/06 10:08:48;;;;;;;9.65;7.72;;;30.80;79.80;;;;;;4175889;28;20102;-68
2022/04/06 10:10:56;;;;;;;21.20;14.00;;;30.70;80.00;;;;;;4176981;28;20086;-69
2022/04/06 10:13:01;;;;;;;26.17;18.08;;;30.70;80.30;;;;;;4174796;28;20075;-69
2022/04/06 10:15:26;;;;;;;10.48;8.52;;;30.60;80.70;;;;;;4177187;28;20082;-69
2022/04/06 10:17:33;;;;;;;21.08;14.15;;;30.70;79.40;;;;;;4177887;28;20503;-70
2022/04/06 10:19:39;;;;;;;28.00;18.20;;;30.60;79.80;;;;;;4177369;28;20155;-69
2022/04/06 10:22:02;;;;;;;14.05;10.43;;;30.60;79.70;;;;;;4160392;28;20045;-69
2022/04/06 10:24:22;;;;;;;15.73;10.45;;;30.50;80.20;;;;;;4177538;28;20052;-69
2022/04/06 10:27:00;;;;;;;18.35;11.98;;;30.40;80.40;;;;;;4160181;28;20060;-69
2022/04/06 10:29:06;;;;;;;27.10;17.15;;;30.40;80.70;;;;;;4173636;28;20071;-69
2022/04/06 10:31:17;;;;;;;22.98;13.63;;;30.40;81.00;;;;;;4177480;28;20073;-69
2022/04/06 10:33:22;;;;;;;17.83;10.63;;;30.40;81.00;;;;;;4176571;28;20103;-68
2022/04/06 10:35:32;;;;;;;21.80;11.52;;;30.30;81.10;;;;;;4176838;28;20438;-69
2022/04/06 10:37:47;;;;;;;20.15;11.50;;;30.40;81.20;;;;;;4176615;28;20484;-69
2022/04/06 10:40:00;;;;;;;18.42;10.60;;;30.40;81.40;;;;;;4175627;28;20032;-69
2022/04/06 10:42:32;;;;;;;14.23;8.70;;;30.40;81.90;;;;;;4176128;28;20095;-68
2022/04/06 10:44:40;;;;;;;11.20;7.88;;;30.30;81.70;;;;;;4175591;28;20076;-68
2022/04/06 10:46:44;;;;;;;15.27;7.80;;;30.10;82.00;;;;;;4175488;28;20041;-68
2022/04/06 10:48:59;;;;;;;16.95;8.30;;;30.10;82.50;;;;;;4175640;28;20044;-68
2022/04/06 10:51:29;;;;;;;14.70;8.05;;;30.10;82.30;;;;;;4174154;28;20051;-67
2022/04/06 10:53:34;;;;;;;15.35;8.57;;;30.00;82.10;;;;;;4178122;28;20045;-69
2022/04/06 10:55:41;;;;;;;13.65;8.38;;;30.00;82.60;;;;;;4177525;28;20750;-69
2022/04/06 10:58:05;;;;;;;12.65;7.32;;;30.10;82.80;;;;;;4178402;28;20095;-69
2022/04/06 11:00:17;;;;;;;13.77;8.23;;;30.00;82.40;;;;;;4159578;28;20049;-69
2022/04/06 11:02:28;;;;;;;11.25;8.30;;;30.00;82.10;;;;;;4173278;28;20107;-69
2022/04/06 11:04:42;;;;;;;11.32;7.63;;;30.00;82.40;;;;;;4173374;28;20045;-69
2022/04/06 11:06:56;;;;;;;15.25;8.43;;;29.90;82.50;;;;;;4157449;28;20053;-68
2022/04/06 11:11:46;;;;;;;11.77;8.35;;;30.00;82.40;;;;;;4175273;28;20045;-69
2022/04/06 11:13:51;;;;;;;13.00;7.82;;;29.80;82.90;;;;;;4176325;28;20131;-68
2022/04/06 11:15:58;;;;;;;15.57;8.45;;;29.80;82.80;;;;;;4175982;28;20128;-68
2022/04/06 11:18:06;;;;;;;15.55;8.52;;;29.80;83.00;;;;;;4174396;28;20041;-68